Tiempo atmosférico en la estación meteorológica de Jaraicejo, Cáceres (510 m.)



Fecha
DESCASC
Temp. máxima en grados centígrados (hora)
DESCASC
Temp. mínima en grados centígrados (hora)
DESCASC
Temp. media en grados centígrados
DESCASC
Racha de viento máxima en m/sg (hora)
DESCASC
Velocidad máxima media en intervalos de 10 minutos(hora)
DESCASC
Precipitaciones diarias en mm
DESCASC
Precipitaciones de 00:00 a 06:00 en mm
DESCASC
Precipitaciones de 06:00 a 12:00 en mm
DESCASC
Precipitaciones de 12:00 a 18:00 en mm
DESCASC
Precipitaciones de 18:00 a 24:00 en mm
DESCASC
31-03-2020 10.7 (18:10) 2.2 (05:50) 6.4 18.89 (01:20) 13.89 (01:20) 13.8 1 2.2 1 9.6
30-03-2020 13.8 (11:40) 3.1 (23:10) 8.5 16.67 (23:10) 12.5 (23:10) 1.8 0 0 0.4 1.4
29-03-2020 18.3 (15:30) 7.3 (00:00) 12.8 6.39 (18:00) 3.33 (15:40) 0 0 0 0 0
28-03-2020 15.9 (16:00) 4.1 (00:00) 10 15 (10:00) 11.39 (10:00) 0 0 0 0 0
27-03-2020 11.6 (13:50) 5.1 (00:00) 8.4 15.56 (16:00) 11.39 (16:00) 0 0 0 0 0
26-03-2020 18.4 (15:30) 6.6 (00:00) 12.5 9.17 (14:50) 4.72 (14:50) 0.2 0.2 0 0 0
25-03-2020 18.4 (15:40) 7.2 (00:00) 12.8 7.5 (17:30) 4.17 (21:20) 1.6 0 0 0 1.6
24-03-2020 15.1 (17:50) 9.3 (00:00) 12.2 15 (12:30) 10.83 (12:30) 0 0 0 0 0
23-03-2020 14.6 (15:20) 7.6 (00:00) 11.1 12.5 (20:00) 9.17 (23:10) 0 0 0 0 0
22-03-2020 15.3 (16:40) 6.3 (06:30) 10.8 10 (18:40) 6.94 (18:40) 0.6 0 0 0 0.6
21-03-2020 12.3 (16:10) 6.3 (00:00) 9.3 11.39 (00:50) 7.22 (18:00) 22.8 15.2 7 0 0.6
20-03-2020 13.6 (13:40) 9 (00:00) 11.3 10.83 (03:30) 8.33 (03:20) 10 0 2.2 0 7.8
19-03-2020 16.4 (14:30) 8 (00:00) 12.2 14.17 (13:30) 10.28 (13:40) 0 0 0 0 0
18-03-2020 15.3 (14:00) 10.1 (00:00) 12.7 17.22 (02:30) 12.78 (12:30) 0 0 0 0 0
17-03-2020 16.1 (16:10) 3.8 (00:00) 10 15.56 (23:40) 11.39 (23:40) 0 0 0 0 0
16-03-2020 9.1 (14:40) 2.7 (00:00) 5.9 16.94 (11:30) 10.56 (11:30) 2.6 0 0 2.6 0
15-03-2020 20.9 (15:10) 6.5 (00:00) 13.7 13.89 (16:30) 8.61 (15:40) 0 0 0 0 0
14-03-2020 22.4 (15:40) 9.7 (00:00) 16 7.78 (14:30) 3.33 (03:30) 0 0 0 0 0
13-03-2020 21.2 (16:00) 11.3 (08:00) 16.3 6.94 (16:30) 3.89 (13:10) 0 0 0 0 0
12-03-2020 24.1 (13:20) 15.1 (00:00) 19.6 8.33 (13:50) 5.56 (13:40) 0 0 0 0 0
11-03-2020 24.2 (14:40) 13.5 (00:00) 18.9 5.56 (23:50) 4.44 (21:30) 0 0 0 0 0
10-03-2020 22.4 (16:30) 8.2 (00:00) 15.3 5 (06:10) 3.61 (06:00) 0 0 0 0 0
09-03-2020 18.7 (16:40) 5.3 (00:00) 12 7.78 (18:10) 4.17 (17:30) 0 0 0 0 0
08-03-2020 16 (14:20) 6.3 (00:00) 11.2 6.11 (13:50) 3.61 (12:30) 0 0 0 0 0
07-03-2020 16.4 (16:10) 3.3 (00:00) 9.8 12.78 (00:20) 8.61 (00:10) 0 0 0 0 0
06-03-2020 13.7 (17:00) 4.8 (00:00) 9.3 14.17 (12:30) 8.06 (12:20) 0.2 0.2 0 0 0
05-03-2020 15.6 (15:30) 6.8 (00:00) 11.2 13.06 (10:20) 8.33 (08:20) 2 0 2 0 0
04-03-2020 16.8 (15:40) 10.2 (00:00) 13.5 8.33 (15:30) 4.17 (14:00) 0 0 0 0 0
03-03-2020 13.9 (17:10) 4.3 (00:00) 9.1 10.56 (11:50) 6.94 (09:40) 0 0 0 0 0

Gráficas

Temp. máximas Temp. mínimas Temp. medias Precipitaciones Rachas de viento máximas Velocidades máximas media en intervalos de 10 minutos

Datos horarios

Fecha y hora oficial Temperatura (ºC) Velocidad del viento (km/h) Dirección del viento Racha (km/h) Dirección de racha Precipitación (mm) Presión (hPa) Tendencia (hPa) Humedad (%)
2020-04-01 23:00:00 7.9 8 Sudeste 15 Este 0 -- -- 75
2020-04-01 22:00:00 7.3 9 Este 19 Sudeste 0 -- -- 80
2020-04-01 21:00:00 8.4 9 Sudeste 17 Sur 0 -- -- 78
2020-04-01 20:00:00 9.6 9 Sudoeste 37 Sudoeste 0 -- -- 74
2020-04-01 19:00:00 13.1 12 Sudoeste 27 Sudoeste 0 -- -- 53
2020-04-01 18:00:00 13 15 Sudoeste 28 Sur 0 -- -- 53
2020-04-01 17:00:00 12.2 15 Sudoeste 24 Sudoeste 0 -- -- 59
2020-04-01 16:00:00 11.6 8 Sudoeste 20 Sudoeste 0 -- -- 60
2020-04-01 15:00:00 11.8 10 Sur 21 Sur 0 -- -- 60
2020-04-01 14:00:00 10.9 6 Sudoeste 24 Sudoeste 0 -- -- 61
2020-04-01 13:00:00 10.3 10 Sur 18 Sur 0 -- -- 63
2020-04-01 12:00:00 8.3 9 Sudoeste 20 Oeste 0 -- -- 80
2020-04-01 11:00:00 7.9 7 Sur 13 Sur 0 -- -- 80
2020-04-01 10:00:00 6.5 7 Sudeste 12 Sudeste 0 -- -- 86
2020-04-01 09:00:00 5.1 5 Sudeste 10 Sudeste 0 -- -- 90
2020-04-01 08:00:00 5 4 Sudeste 8 Sudeste 0 -- -- 90
2020-04-01 07:00:00 5.1 6 Este 8 Este 0 -- -- 91
2020-04-01 06:00:00 4.7 5 Este 7 Este 0 -- -- 95
2020-04-01 05:00:00 4.1 5 Este 9 Este 0 -- -- 96
2020-04-01 04:00:00 4.5 0 Calma 7 Sudoeste 0 -- -- 96
2020-04-01 03:00:00 5 4 Oeste 16 Oeste 0 -- -- 95
2020-04-01 02:00:00 6.2 8 Sudoeste 14 Sudoeste 0 -- -- 95
2020-04-01 01:00:00 6.9 10 Sudoeste 19 Sudoeste 0 -- -- 96
2020-04-01 00:00:00 8.1 9 Oeste 23 Sudoeste 0 -- -- 97
2020-03-31 23:00:00 8.8 9 Sudoeste 13 Sudoeste 0 -- -- 97
2020-03-31 22:00:00 8.7 4 Sudeste 9 Este 0 -- -- 97
2020-03-31 21:00:00 8.7 5 Este 9 Este 0 -- -- 96
2020-03-31 20:00:00 8.9 3 Nordeste 27 Noroeste 8.2 -- -- 97
2020-03-31 19:00:00 10.2 8 Nordeste 24 Este 1.4 -- -- 88
2020-03-31 18:00:00 10.5 16 Este 32 Este 0.2 -- -- 85
2020-03-31 17:00:00 9.1 25 Este 33 Este 0.8 -- -- 95
2020-03-31 16:00:00 9.1 23 Este 33 Nordeste 0 -- -- 87
2020-03-31 15:00:00 9.8 22 Este 32 Nordeste 0 -- -- 86
2020-03-31 14:00:00 8.4 25 Este 34 Este 0 -- -- 90
2020-03-31 13:00:00 5.5 27 Nordeste 42 Nordeste 0 -- -- 96
2020-03-31 12:00:00 4.3 35 Este 44 Este 0.4 -- -- 98
2020-03-31 11:00:00 3.3 31 Este 44 Este 0 -- -- 98
2020-03-31 10:00:00 2.9 37 Este 50 Nordeste 0.2 -- -- 98
2020-03-31 09:00:00 2.4 38 Nordeste 51 Nordeste 0 -- -- 98
2020-03-31 08:00:00 2.4 39 Este 50 Nordeste 0.4 -- -- 97
2020-03-31 07:00:00 2.3 37 Nordeste 51 Nordeste 1.2 -- -- 97
2020-03-31 06:00:00 2.3 42 Este 56 Nordeste 0.6 -- -- 96
2020-03-31 05:00:00 2.4 41 Nordeste 54 Nordeste 0 -- -- 94
2020-03-31 04:00:00 2.6 41 Nordeste 59 Nordeste 0 -- -- 93
2020-03-31 03:00:00 2.7 47 Nordeste 62 Nordeste 0 -- -- 92
2020-03-31 02:00:00 3.1 48 Este 68 Nordeste 0 -- -- 89
2020-03-31 01:00:00 3.1 47 Este 66 Nordeste 0.4 -- -- 92
2020-03-31 00:00:00 3.2 44 Nordeste 60 Nordeste 0.2 -- -- 93
2020-03-30 23:00:00 3.2 45 Nordeste 58 Nordeste 0.6 -- -- 94
2020-03-30 22:00:00 3.7 40 Nordeste 52 Nordeste 0.2 -- -- 93
2020-03-30 21:00:00 4.3 35 Nordeste 48 Nordeste 0.2 -- -- 93
2020-03-30 20:00:00 5.3 35 Nordeste 46 Nordeste 0 -- -- 92
2020-03-30 19:00:00 6 35 Nordeste 45 Nordeste 0.2 -- -- 93
2020-03-30 18:00:00 7.1 33 Nordeste 43 Nordeste 0.2 -- -- 92
2020-03-30 17:00:00 8.3 27 Nordeste 40 Nordeste 0.2 -- -- 84
2020-03-30 16:00:00 9.7 18 Este 25 Nordeste 0 -- -- 81
2020-03-30 15:00:00 11.5 21 Nordeste 30 Nordeste 0 -- -- 65
2020-03-30 14:00:00 12.5 21 Nordeste 30 Nordeste 0 -- -- 61
2020-03-30 13:00:00 12.6 22 Nordeste 28 Nordeste 0 -- -- 62
2020-03-30 12:00:00 13.2 9 Este 15 Este 0 -- -- 64
2020-03-30 11:00:00 12.6 7 Nordeste 12 Norte 0 -- -- 68
2020-03-30 10:00:00 10.9 6 Norte 12 Norte 0 -- -- 76
2020-03-30 09:00:00 7.9 8 Este 11 Este 0 -- -- 86
2020-03-30 08:00:00 6.9 8 Este 9 Este 0 -- -- 88
2020-03-30 07:00:00 7.5 6 Sudeste 11 Sudeste 0 -- -- 86
2020-03-30 06:00:00 7.6 6 Sudeste 9 Sudeste 0 -- -- 85
2020-03-30 05:00:00 8.2 5 Sudeste 10 Sur 0 -- -- 82
2020-03-30 04:00:00 8.8 5 Sur 8 Sudeste 0 -- -- 80
2020-03-30 03:00:00 9.4 4 Sudeste 8 Sudeste 0 -- -- 77
2020-03-30 02:00:00 10.2 4 Sudeste 10 Sudeste 0 -- -- 74
2020-03-30 01:00:00 10.7 4 Sur 9 Oeste 0 -- -- 71
2020-03-30 00:00:00 11.7 4 Oeste 9 Oeste 0 -- -- 65
2020-03-29 23:00:00 12.4 4 Oeste 10 Oeste 0 -- -- 63
2020-03-29 22:00:00 12.7 4 Oeste 11 Sudoeste 0 -- -- 61
2020-03-29 21:00:00 13.5 4 Oeste 11 Oeste 0 -- -- 57
2020-03-29 20:00:00 15.6 6 Sudoeste 15 Oeste 0 -- -- 52
2020-03-29 19:00:00 17.3 8 Sudoeste 16 Sudoeste 0 -- -- 43
2020-03-29 18:00:00 17.5 12 Sudoeste 23 Sur 0 -- -- 42
2020-03-29 17:00:00 17.8 6 Oeste 18 Sudoeste 0 -- -- 43
2020-03-29 16:00:00 17.6 6 Oeste 21 Sudoeste 0 -- -- 43
2020-03-29 15:00:00 17.6 4 Noroeste 15 Sudoeste 0 -- -- 43
2020-03-29 14:00:00 16.8 5 Oeste 14 Oeste 0 -- -- 43
2020-03-29 13:00:00 16 7 Sudoeste 13 Sudoeste 0 -- -- 47
2020-03-29 12:00:00 14.8 4 Sudoeste 10 Sudoeste 0 -- -- 46
2020-03-29 11:00:00 13.6 4 Sudoeste 6 Sudoeste 0 -- -- 60
2020-03-29 10:00:00 11.9 3 Noroeste 5 Noroeste 0 -- -- 51
2020-03-29 09:00:00 9.4 2 Oeste 3 Oeste 0 -- -- 62
2020-03-29 08:00:00 7.5 3 Norte 6 Este 0 -- -- 63
2020-03-29 07:00:00 7.3 4 Nordeste 7 Este 0 -- -- 65
2020-03-29 06:00:00 9.2 6 Sudeste 13 Sudeste 0 -- -- 58
2020-03-29 05:00:00 8.6 8 Sudeste 15 Este 0 -- -- 60
2020-03-29 03:00:00 9.4 9 Sudeste 14 Sudeste 0 -- -- 56
2020-03-29 01:00:00 9.2 5 Este 12 Este 0 -- -- 51
2020-03-29 00:00:00 9.1 11 Este 17 Nordeste 0 -- -- 52
2020-03-28 23:00:00 9.1 15 Nordeste 19 Nordeste 0 -- -- 53
2020-03-28 22:00:00 10.4 17 Nordeste 20 Nordeste 0 -- -- 48
2020-03-28 21:00:00 10.9 17 Nordeste 20 Nordeste 0 -- -- 53
2020-03-28 20:00:00 11.8 15 Nordeste 18 Nordeste 0 -- -- 53
2020-03-28 19:00:00 14 11 Nordeste 18 Norte 0 -- -- 49
2020-03-28 18:00:00 14.8 11 Nordeste 26 Nordeste 0 -- -- 48
2020-03-28 17:00:00 15.5 13 Nordeste 24 Nordeste 0 -- -- 48
2020-03-28 16:00:00 15.9 8 Nordeste 28 Nordeste 0 -- -- 49
2020-03-28 15:00:00 15.7 15 Este 31 Nordeste 0 -- -- 47
2020-03-28 14:00:00 14.6 17 Nordeste 28 Nordeste 0 -- -- 51
2020-03-28 13:00:00 13.8 17 Nordeste 33 Este 0 -- -- 55
2020-03-28 12:00:00 12.4 25 Nordeste 44 Nordeste 0 -- -- 57
2020-03-28 11:00:00 11.2 33 Nordeste 46 Nordeste 0 -- -- 59
2020-03-28 10:00:00 9.5 41 Nordeste 54 Nordeste 0 -- -- 63
2020-03-28 09:00:00 7.9 37 Nordeste 47 Nordeste 0 -- -- 69
2020-03-28 08:00:00 5.3 26 Nordeste 40 Nordeste 0 -- -- 81
2020-03-28 07:00:00 4.1 22 Nordeste 32 Nordeste 0 -- -- 85
2020-03-28 06:00:00 4.5 22 Nordeste 33 Nordeste 0 -- -- 84
2020-03-28 05:00:00 4.6 23 Nordeste 31 Nordeste 0 -- -- 85
2020-03-28 04:00:00 4.7 24 Nordeste 31 Nordeste 0 -- -- 85
2020-03-28 03:00:00 5 22 Nordeste 33 Nordeste 0 -- -- 82
2020-03-28 02:00:00 5.5 24 Nordeste 31 Nordeste 0 -- -- 79
2020-03-28 01:00:00 6.3 25 Nordeste 32 Nordeste 0 -- -- 74
2020-03-28 00:00:00 6.3 15 Este 23 Este 0 -- -- 75
2020-03-27 23:00:00 6.2 12 Este 19 Este 0 -- -- 76
2020-03-27 22:00:00 6.7 14 Nordeste 24 Este 0 -- -- 73
2020-03-27 21:00:00 7.5 15 Este 24 Este 0 -- -- 68
2020-03-27 20:00:00 8 15 Este 35 Nordeste 0 -- -- 62
2020-03-27 19:00:00 9.7 24 Nordeste 44 Nordeste 0 -- -- 56
2020-03-27 18:00:00 10.8 28 Nordeste 49 Nordeste 0 -- -- 53
2020-03-27 17:00:00 11.4 32 Nordeste 52 Nordeste 0 -- -- 54
2020-03-27 16:00:00 11.2 41 Nordeste 56 Nordeste 0 -- -- 54
2020-03-27 15:00:00 11.5 38 Nordeste 55 Nordeste 0 -- -- 53
2020-03-27 14:00:00 11.5 35 Nordeste 48 Este 0 -- -- 57
2020-03-27 13:00:00 11.1 31 Nordeste 45 Nordeste 0 -- -- 60
2020-03-27 12:00:00 10.7 27 Nordeste 44 Nordeste 0 -- -- 59
2020-03-27 11:00:00 9.3 33 Nordeste 44 Este 0 -- -- 61
2020-03-27 10:00:00 8.6 28 Nordeste 42 Nordeste 0 -- -- 61
2020-03-27 09:00:00 7 28 Nordeste 39 Este 0 -- -- 64
2020-03-27 08:00:00 5.6 26 Nordeste 41 Nordeste 0 -- -- 68
2020-03-27 07:00:00 5.5 28 Nordeste 45 Nordeste 0 -- -- 67
2020-03-27 06:00:00 6.2 32 Nordeste 49 Nordeste 0 -- -- 61
2020-03-27 05:00:00 6.2 31 Nordeste 39 Nordeste 0 -- -- 65
2020-03-27 04:00:00 5.9 21 Nordeste 26 Nordeste 0 -- -- 77
2020-03-27 03:00:00 7 5 Sudeste 11 Sudeste 0 -- -- 90
2020-03-27 02:00:00 6.6 7 Sudeste 10 Sudeste 0 -- -- 92
2020-03-27 01:00:00 7.9 5 Sudeste 10 Sudeste 0 -- -- 87
2020-03-27 00:00:00 8.5 4 Sudeste 9 Sudoeste 0 -- -- 82
2020-03-26 23:00:00 9.8 4 Oeste 13 Oeste 0 -- -- 78
2020-03-26 22:00:00 10.9 5 Oeste 21 Sudoeste 0 -- -- 70
2020-03-26 21:00:00 12.8 6 Oeste 18 Oeste 0 -- -- 42
2020-03-26 20:00:00 13.7 7 Noroeste 16 Oeste 0 -- -- 37
2020-03-26 19:00:00 16 8 Oeste 32 Noroeste 0 -- -- 33
2020-03-26 18:00:00 17.5 13 Oeste 32 Oeste 0 -- -- 34
2020-03-26 17:00:00 18.1 15 Oeste 33 Oeste 0 -- -- 37
2020-03-26 16:00:00 18.1 14 Oeste 31 Oeste 0 -- -- 38
2020-03-26 15:00:00 17.9 13 Oeste 33 Oeste 0 -- -- 45
2020-03-26 14:00:00 17.2 12 Oeste 33 Oeste 0 -- -- 46
2020-03-26 13:00:00 16.4 14 Oeste 32 Noroeste 0 -- -- 46
2020-03-26 12:00:00 15.3 16 Noroeste 28 Noroeste 0 -- -- 46
2020-03-26 11:00:00 14.2 12 Oeste 30 Noroeste 0 -- -- 56
2020-03-26 10:00:00 11.7 6 Sudoeste 11 Sudoeste 0 -- -- 77
2020-03-26 09:00:00 9.7 4 Sudoeste 15 Noroeste 0 -- -- 83
2020-03-26 08:00:00 7.7 7 Noroeste 14 Noroeste 0 -- -- 88
2020-03-26 07:00:00 6.6 0 Calma 8 Sudeste 0 -- -- 93
2020-03-26 06:00:00 7 0 Calma 10 Sudeste 0 -- -- 93
2020-03-26 05:00:00 7.9 2 Sur 8 Sudeste 0 -- -- 94
2020-03-26 04:00:00 8.3 4 Sur 9 Sudeste 0.2 -- -- 95
2020-03-26 03:00:00 8.8 4 Sudeste 10 Sudeste 0 -- -- 93
2020-03-26 02:00:00 9.4 6 Sudeste 10 Sudeste 0 -- -- 92
2020-03-26 01:00:00 9.8 6 Sudeste 12 Sudeste 0 -- -- 91
2020-03-26 00:00:00 9.9 8 Sudeste 15 Sudeste 0 -- -- 91
2020-03-25 23:00:00 10.3 8 Sudeste 21 Este 1.6 -- -- 89
2020-03-25 22:00:00 11 13 Sudeste 25 Sudeste 0 -- -- 83
2020-03-25 21:00:00 13.8 9 Nordeste 19 Nordeste 0 -- -- 69
2020-03-25 20:00:00 14.6 8 Oeste 21 Oeste 0 -- -- 68
2020-03-25 19:00:00 15.8 7 Oeste 15 Oeste 0 -- -- 64
2020-03-25 18:00:00 16.8 7 Oeste 27 Sudoeste 0 -- -- 57
2020-03-25 17:00:00 17.5 5 Oeste 20 Sudoeste 0 -- -- 52
2020-03-25 16:00:00 17.6 8 Oeste 27 Sudoeste 0 -- -- 52
2020-03-25 15:00:00 16.2 10 Sudoeste 24 Sudoeste 0 -- -- 60
2020-03-25 14:00:00 17.1 10 Oeste 24 Sudoeste 0 -- -- 58
2020-03-25 13:00:00 15.6 13 Sudoeste 23 Sudoeste 0 -- -- 58
2020-03-25 12:00:00 14.8 10 Sudoeste 17 Sudoeste 0 -- -- 58
2020-03-25 11:00:00 13.8 8 Sudoeste 13 Oeste 0 -- -- 58
2020-03-25 10:00:00 12.5 4 Oeste 8 Oeste 0 -- -- 66
2020-03-25 09:00:00 10.8 4 Este 8 Este 0 -- -- 64
2020-03-25 08:00:00 8.2 2 Este 8 Nordeste 0 -- -- 75
2020-03-25 07:00:00 7.5 6 Nordeste 12 Este 0 -- -- 80
2020-03-25 06:00:00 8 6 Este 15 Este 0 -- -- 79
2020-03-25 05:00:00 7.6 11 Nordeste 17 Nordeste 0 -- -- 84
2020-03-25 04:00:00 7.5 8 Nordeste 15 Este 0 -- -- 81
2020-03-25 03:00:00 8.3 11 Nordeste 14 Nordeste 0 -- -- 79
2020-03-25 02:00:00 8.5 10 Este 18 Este 0 -- -- 75
2020-03-25 01:00:00 9.4 6 Este 14 Sudeste 0 -- -- 73
2020-03-25 00:00:00 10.3 11 Este 19 Este 0 -- -- 69
2020-03-24 23:00:00 10.2 11 Este 18 Este 0 -- -- 72
2020-03-24 22:00:00 11.1 13 Este 23 Este 0 -- -- 70
2020-03-24 21:00:00 10.6 16 Este 22 Nordeste 0 -- -- 74
2020-03-24 20:00:00 11.6 14 Nordeste 30 Nordeste 0 -- -- 72
2020-03-24 19:00:00 13.6 22 Nordeste 39 Este 0 -- -- 64
2020-03-24 18:00:00 14.8 30 Nordeste 43 Este 0 -- -- 60
2020-03-24 17:00:00 14.9 26 Este 42 Este 0 -- -- 63
2020-03-24 16:00:00 14 24 Nordeste 41 Este 0 -- -- 64
2020-03-24 15:00:00 13.9 30 Nordeste 46 Este 0 -- -- 63
2020-03-24 14:00:00 12.9 27 Nordeste 46 Nordeste 0 -- -- 68
2020-03-24 13:00:00 13.3 31 Este 54 Este 0 -- -- 69
2020-03-24 12:00:00 12.5 33 Este 51 Nordeste 0 -- -- 69
2020-03-24 11:00:00 12.8 35 Este 52 Nordeste 0 -- -- 74
2020-03-24 10:00:00 12 36 Nordeste 51 Este 0 -- -- 72
2020-03-24 09:00:00 9.8 33 Nordeste 49 Nordeste 0 -- -- 83
2020-03-24 08:00:00 9.8 32 Este 48 Nordeste 0 -- -- 82
2020-03-24 07:00:00 9.8 25 Este 47 Nordeste 0 -- -- 80
2020-03-24 06:00:00 10.1 29 Nordeste 46 Nordeste 0 -- -- 79
2020-03-24 05:00:00 9.6 33 Nordeste 48 Nordeste 0 -- -- 84
2020-03-24 04:00:00 9.3 36 Nordeste 46 Nordeste 0 -- -- 88
2020-03-24 03:00:00 9.8 30 Nordeste 39 Este 0 -- -- 84
2020-03-24 02:00:00 9.4 26 Nordeste 32 Nordeste 0 -- -- 83
2020-03-24 01:00:00 9.5 17 Nordeste 35 Nordeste 0 -- -- 81
2020-03-24 00:00:00 10.2 27 Nordeste 42 Este 0 -- -- 76
2020-03-23 23:00:00 9.9 28 Nordeste 36 Este 0 -- -- 75
2020-03-23 22:00:00 10.3 25 Nordeste 40 Este 0 -- -- 75
2020-03-23 21:00:00 10.8 33 Este 45 Nordeste 0 -- -- 72
2020-03-23 20:00:00 12 32 Nordeste 45 Nordeste 0 -- -- 70
2020-03-23 19:00:00 12.8 19 Nordeste 32 Nordeste 0 -- -- 66
2020-03-23 18:00:00 13.7 24 Nordeste 40 Nordeste 0 -- -- 60
2020-03-23 17:00:00 14.4 29 Nordeste 42 Nordeste 0 -- -- 61
2020-03-23 16:00:00 14 27 Nordeste 44 Nordeste 0 -- -- 66
2020-03-23 15:00:00 14.2 23 Nordeste 44 Este 0 -- -- 59
2020-03-23 14:00:00 13.1 23 Nordeste 40 Nordeste 0 -- -- 66
2020-03-23 13:00:00 13 26 Nordeste 36 Este 0 -- -- 68
2020-03-23 12:00:00 12.4 26 Nordeste 40 Nordeste 0 -- -- 70
2020-03-23 11:00:00 11.9 27 Este 44 Este 0 -- -- 77
2020-03-23 10:00:00 11.2 21 Este 33 Este 0 -- -- 79
2020-03-23 09:00:00 9.5 20 Nordeste 29 Nordeste 0 -- -- 86
2020-03-23 08:00:00 8.1 9 Nordeste 25 Nordeste 0 -- -- 91
2020-03-23 07:00:00 7.9 14 Nordeste 33 Nordeste 0 -- -- 93
2020-03-23 06:00:00 7.6 18 Nordeste 27 Nordeste 0 -- -- 94
2020-03-23 05:00:00 8.2 21 Nordeste 29 Nordeste 0 -- -- 92
2020-03-23 04:00:00 8.2 19 Nordeste 24 Nordeste 0 -- -- 91
2020-03-23 03:00:00 8.1 15 Nordeste 19 Nordeste 0 -- -- 90
2020-03-23 02:00:00 8.4 14 Nordeste 20 Nordeste 0 -- -- 88
2020-03-23 01:00:00 8.3 14 Nordeste 17 Nordeste 0 -- -- 89
2020-03-23 00:00:00 8.7 0 Calma 4 Nordeste 0 -- -- 85
2020-03-22 23:00:00 8.5 0 Calma 5 Norte 0 -- -- 85
2020-03-22 22:00:00 8.8 0 Calma 10 Nordeste 0 -- -- 84
2020-03-22 21:00:00 8.6 9 Norte 11 Norte 0 -- -- 90
2020-03-22 20:00:00 9.1 8 Norte 21 Norte 0.4 -- -- 91
2020-03-22 19:00:00 9.9 16 Norte 36 Norte 0.2 -- -- 90
2020-03-22 18:00:00 13.4 14 Nordeste 21 Nordeste 0 -- -- 57
2020-03-22 17:00:00 14.6 9 Norte 18 Este 0 -- -- 53
2020-03-22 16:00:00 14.7 9 Nordeste 28 Nordeste 0 -- -- 53
2020-03-22 15:00:00 14.4 17 Nordeste 28 Norte 0 -- -- 58
2020-03-22 14:00:00 14.4 13 Nordeste 27 Nordeste 0 -- -- 59
2020-03-22 13:00:00 12.9 18 Este 28 Este 0 -- -- 60
2020-03-22 12:00:00 12.1 18 Nordeste 27 Nordeste 0 -- -- 66
2020-03-22 11:00:00 11.6 15 Nordeste 26 Nordeste 0 -- -- 74
2020-03-22 10:00:00 9.5 14 Nordeste 24 Nordeste 0 -- -- 86
2020-03-22 09:00:00 7.6 10 Norte 17 Norte 0 -- -- 90
2020-03-22 08:00:00 6.9 10 Nordeste 14 Nordeste 0 -- -- 95
2020-03-22 07:00:00 6.4 10 Nordeste 15 Norte 0 -- -- 96
2020-03-22 06:00:00 6.6 7 Norte 13 Norte 0 -- -- 96
2020-03-22 05:00:00 7 10 Nordeste 15 Nordeste 0 -- -- 92
2020-03-22 04:00:00 7.2 12 Nordeste 19 Nordeste 0 -- -- 94
2020-03-22 03:00:00 7.6 15 Nordeste 19 Nordeste 0 -- -- 94
2020-03-22 02:00:00 7.6 15 Nordeste 19 Nordeste 0 -- -- 94
2020-03-22 01:00:00 7.9 12 Nordeste 20 Nordeste 0 -- -- 93
2020-03-22 00:00:00 7.9 10 Nordeste 14 Este 0 -- -- 93
2020-03-21 23:00:00 7.8 9 Este 13 Este 0.2 -- -- 95
2020-03-21 22:00:00 7.9 6 Sudeste 16 Este 0.4 -- -- 92
2020-03-21 21:00:00 8.5 7 Sur 24 Este 0 -- -- 87
2020-03-21 20:00:00 9 20 Nordeste 30 Este 0 -- -- 86
2020-03-21 19:00:00 10 25 Nordeste 34 Nordeste 0 -- -- 81
2020-03-21 18:00:00 10.3 26 Nordeste 32 Nordeste 0 -- -- 76
2020-03-21 17:00:00 11.6 23 Nordeste 32 Nordeste 0 -- -- 77
2020-03-21 16:00:00 12.1 13 Nordeste 23 Nordeste 0 -- -- 77
2020-03-21 15:00:00 11.8 7 Este 17 Este 0 -- -- 70
2020-03-21 14:00:00 10 9 Este 15 Este 0 -- -- 80
2020-03-21 13:00:00 9 7 Sudeste 15 Sudeste 0 -- -- 89
2020-03-21 12:00:00 7.8 7 Sudeste 14 Sudeste 0.2 -- -- 98
2020-03-21 11:00:00 6.9 8 Sudeste 18 Este 0.4 -- -- 96
2020-03-21 10:00:00 6.5 9 Sudeste 20 Sudeste 0.6 -- -- 96
2020-03-21 09:00:00 6.4 13 Sudeste 21 Sudeste 0.6 -- -- 96
2020-03-21 08:00:00 6.3 8 Sudeste 21 Sudoeste 2.4 -- -- 97
2020-03-21 07:00:00 7.1 14 Sudoeste 27 Oeste 2.8 -- -- 99
2020-03-21 06:00:00 8 6 Sudoeste 15 Sudoeste 2 -- -- 99
2020-03-21 05:00:00 8 8 Oeste 21 Norte 4.6 -- -- 99
2020-03-21 04:00:00 8.1 9 Norte 19 Nordeste 2.8 -- -- 98
2020-03-21 03:00:00 8.2 9 Norte 14 Norte 2.6 -- -- 98
2020-03-21 02:00:00 8.4 6 Oeste 24 Oeste 3.2 -- -- 96
2020-03-21 01:00:00 9.6 16 Sudoeste 41 Sudoeste 0 -- -- 92
2020-03-21 00:00:00 11.4 15 Este 27 Este 0 -- -- 85
2020-03-20 23:00:00 10.3 22 Este 32 Nordeste 0 -- -- 88
2020-03-20 22:00:00 10.5 22 Nordeste 28 Nordeste 0.2 -- -- 89
2020-03-20 21:00:00 10.5 17 Nordeste 26 Nordeste 1 -- -- 93
2020-03-20 20:00:00 10.7 17 Este 24 Este 4 -- -- 95
2020-03-20 19:00:00 11.6 4 Sur 35 Nordeste 2.6 -- -- 88
2020-03-20 18:00:00 12.8 26 Nordeste 36 Nordeste 0 -- -- 79
2020-03-20 17:00:00 12.8 27 Nordeste 36 Nordeste 0 -- -- 80
2020-03-20 16:00:00 13 23 Nordeste 31 Nordeste 0 -- -- 83
2020-03-20 15:00:00 12.8 21 Nordeste 28 Nordeste 0 -- -- 84
2020-03-20 14:00:00 13.5 12 Sudeste 21 Este 0 -- -- 76
2020-03-20 13:00:00 12.9 10 Este 19 Este 0 -- -- 83
2020-03-20 12:00:00 12.4 9 Sudeste 20 Este 0 -- -- 85
2020-03-20 11:00:00 10.6 15 Este 30 Nordeste 0 -- -- 91
2020-03-20 10:00:00 10.1 21 Nordeste 33 Nordeste 0 -- -- 93
2020-03-20 09:00:00 9.3 24 Nordeste 32 Nordeste 0.2 -- -- 95
2020-03-20 08:00:00 9.1 20 Nordeste 27 Nordeste 2 -- -- 94
2020-03-20 07:00:00 10 18 Este 27 Nordeste 0 -- -- 84
2020-03-20 06:00:00 9.8 21 Nordeste 33 Este 0 -- -- 84
2020-03-20 05:00:00 10.1 25 Nordeste 38 Nordeste 0 -- -- 82
2020-03-20 04:00:00 10.4 29 Nordeste 39 Nordeste 0 -- -- 81
2020-03-20 03:00:00 10.6 28 Nordeste 37 Nordeste 0 -- -- 80
2020-03-20 02:00:00 11.6 26 Nordeste 32 Nordeste 0 -- -- 73
2020-03-20 01:00:00 13.1 28 Nordeste 37 Nordeste 0 -- -- 65
2020-03-20 00:00:00 12.5 21 Nordeste 31 Nordeste 0 -- -- 70
2020-03-19 23:00:00 12.6 26 Nordeste 35 Nordeste 0 -- -- 69
2020-03-19 22:00:00 13.1 25 Nordeste 35 Nordeste 0 -- -- 66
2020-03-19 21:00:00 13.2 26 Nordeste 33 Nordeste 0 -- -- 65
2020-03-19 20:00:00 13.3 27 Nordeste 40 Nordeste 0 -- -- 65
2020-03-19 19:00:00 14 31 Nordeste 45 Nordeste 0 -- -- 63
2020-03-19 18:00:00 14.6 28 Nordeste 44 Nordeste 0 -- -- 61
2020-03-19 17:00:00 14.5 30 Nordeste 42 Nordeste 0 -- -- 63
2020-03-19 16:00:00 15.4 27 Nordeste 46 Nordeste 0 -- -- 59
2020-03-19 15:00:00 16.1 26 Nordeste 47 Nordeste 0 -- -- 58
2020-03-19 14:00:00 14.2 33 Nordeste 51 Nordeste 0 -- -- 62
2020-03-19 13:00:00 12.4 30 Nordeste 39 Nordeste 0 -- -- 66
2020-03-19 12:00:00 14.7 21 Nordeste 32 Nordeste 0 -- -- 61
2020-03-19 11:00:00 13.7 24 Nordeste 31 Nordeste 0 -- -- 61
2020-03-19 10:00:00 11.8 22 Nordeste 30 Nordeste 0 -- -- 64
2020-03-19 09:00:00 9.7 23 Nordeste 30 Nordeste 0 -- -- 68
2020-03-19 08:00:00 8.2 21 Nordeste 27 Nordeste 0 -- -- 73
2020-03-19 07:00:00 8.3 19 Nordeste 27 Nordeste 0 -- -- 73
2020-03-19 06:00:00 9.1 18 Nordeste 26 Este 0 -- -- 68
2020-03-19 05:00:00 9.4 12 Este 32 Nordeste 0 -- -- 68
2020-03-19 04:00:00 10.1 23 Nordeste 36 Nordeste 0 -- -- 68
2020-03-19 03:00:00 10.9 26 Nordeste 36 Nordeste 0 -- -- 65
2020-03-19 02:00:00 11.4 19 Nordeste 30 Nordeste 0 -- -- 66
2020-03-19 01:00:00 11.8 19 Nordeste 31 Nordeste 0 -- -- 64
2020-03-19 00:00:00 12.8 26 Nordeste 38 Este 0 -- -- 64
2020-03-18 23:00:00 13.2 33 Nordeste 42 Nordeste 0 -- -- 64
2020-03-18 22:00:00 13.3 31 Nordeste 45 Nordeste 0 -- -- 67
2020-03-18 21:00:00 13.4 36 Nordeste 53 Nordeste 0 -- -- 66
2020-03-18 20:00:00 13.6 37 Nordeste 50 Nordeste 0 -- -- 67
2020-03-18 19:00:00 14.1 36 Nordeste 50 Nordeste 0 -- -- 66
2020-03-18 18:00:00 14.5 34 Nordeste 46 Nordeste 0 -- -- 65
2020-03-18 17:00:00 14.8 32 Nordeste 50 Nordeste 0 -- -- 65
2020-03-18 16:00:00 13.7 37 Nordeste 50 Nordeste 0 -- -- 67
2020-03-18 15:00:00 14.3 35 Nordeste 51 Nordeste 0 -- -- 65
2020-03-18 14:00:00 15.3 36 Nordeste 53 Nordeste 0 -- -- 62
2020-03-18 13:00:00 14.8 41 Nordeste 58 Nordeste 0 -- -- 62
2020-03-18 12:00:00 14.4 42 Nordeste 55 Nordeste 0 -- -- 62
2020-03-18 11:00:00 13.5 30 Nordeste 53 Nordeste 0 -- -- 69
2020-03-18 10:00:00 11.4 40 Nordeste 53 Nordeste 0 -- -- 74
2020-03-18 09:00:00 10.7 36 Nordeste 55 Nordeste 0 -- -- 75
2020-03-18 08:00:00 10.1 35 Nordeste 53 Nordeste 0 -- -- 77
2020-03-18 07:00:00 10.2 36 Nordeste 55 Este 0 -- -- 76
2020-03-18 06:00:00 10.5 35 Nordeste 49 Nordeste 0 -- -- 75
2020-03-18 05:00:00 10.8 35 Este 54 Este 0 -- -- 75
2020-03-18 04:00:00 11.3 39 Este 56 Este 0 -- -- 77
2020-03-18 03:00:00 12.2 36 Este 62 Nordeste 0 -- -- 74
2020-03-18 02:00:00 11.9 34 Nordeste 50 Nordeste 0 -- -- 80
2020-03-18 01:00:00 12.9 32 Nordeste 57 Este 0 -- -- 74
2020-03-18 00:00:00 12.9 40 Nordeste 56 Nordeste 0 -- -- 75
2020-03-17 23:00:00 12.9 35 Nordeste 45 Nordeste 0 -- -- 75
2020-03-17 22:00:00 13.4 27 Nordeste 37 Este 0 -- -- 70
2020-03-17 21:00:00 13.4 19 Nordeste 29 Nordeste 0 -- -- 67
2020-03-17 20:00:00 13.3 14 Nordeste 19 Nordeste 0 -- -- 65
2020-03-17 19:00:00 15.3 17 Este 32 Este 0 -- -- 54
2020-03-17 18:00:00 16 23 Este 42 Nordeste 0 -- -- 51
2020-03-17 17:00:00 15.7 25 Nordeste 43 Nordeste 0 -- -- 53
2020-03-17 16:00:00 15.6 26 Este 45 Nordeste 0 -- -- 47
2020-03-17 15:00:00 15.2 34 Nordeste 48 Nordeste 0 -- -- 50
2020-03-17 14:00:00 14.6 30 Este 45 Nordeste 0 -- -- 53
2020-03-17 13:00:00 13.3 26 Nordeste 39 Nordeste 0 -- -- 62
2020-03-17 12:00:00 12.3 23 Este 46 Nordeste 0 -- -- 63
2020-03-17 11:00:00 10.3 40 Nordeste 53 Nordeste 0 -- -- 68
2020-03-17 10:00:00 8.7 34 Este 48 Este 0 -- -- 72
2020-03-17 09:00:00 7.3 29 Este 45 Nordeste 0 -- -- 71
2020-03-17 08:00:00 5.7 32 Nordeste 46 Nordeste 0 -- -- 79
2020-03-17 07:00:00 5.2 26 Nordeste 49 Nordeste 0 -- -- 82
2020-03-17 06:00:00 4.9 36 Nordeste 51 Nordeste 0 -- -- 86
2020-03-17 05:00:00 5 33 Nordeste 46 Nordeste 0 -- -- 83
2020-03-17 04:00:00 4.8 29 Nordeste 44 Nordeste 0 -- -- 85
2020-03-17 03:00:00 4.4 27 Nordeste 38 Nordeste 0 -- -- 88
2020-03-17 02:00:00 4.3 26 Nordeste 33 Nordeste 0 -- -- 89
2020-03-17 01:00:00 4.4 28 Nordeste 49 Nordeste 0 -- -- 89
2020-03-17 00:00:00 3.8 15 Nordeste 30 Nordeste 0 -- -- 91
2020-03-16 23:00:00 3.8 12 Nordeste 26 Nordeste 0 -- -- 92
2020-03-16 22:00:00 4.4 15 Nordeste 27 Nordeste 0 -- -- 86
2020-03-16 21:00:00 3.7 11 Norte 30 Nordeste 0 -- -- 93
2020-03-16 20:00:00 3.7 9 Norte 22 Noroeste 0 -- -- 95
2020-03-16 19:00:00 4.8 12 Norte 30 Noroeste 0 -- -- 94
2020-03-16 18:00:00 4.8 20 Noroeste 35 Noroeste 0.6 -- -- 94
2020-03-16 17:00:00 5.6 18 Noroeste 31 Noroeste 1.4 -- -- 92
2020-03-16 16:00:00 6 19 Noroeste 50 Noroeste 0.6 -- -- 88
2020-03-16 15:00:00 8.7 31 Noroeste 54 Noroeste 0 -- -- 64
2020-03-16 14:00:00 7.8 29 Noroeste 49 Noroeste 0 -- -- 66
2020-03-16 13:00:00 7.9 29 Noroeste 52 Noroeste 0 -- -- 64
2020-03-16 12:00:00 7 33 Noroeste 61 Norte 0 -- -- 67
2020-03-16 11:00:00 7.1 35 Noroeste 56 Noroeste 0 -- -- 67
2020-03-16 10:00:00 5.4 19 Noroeste 41 Oeste 0 -- -- 75
2020-03-16 09:00:00 4.8 19 Noroeste 38 Noroeste 0 -- -- 76
2020-03-16 08:00:00 3.3 13 Noroeste 31 Oeste 0 -- -- 80
2020-03-16 07:00:00 3.2 15 Noroeste 32 Oeste 0 -- -- 80
2020-03-16 06:00:00 3.2 13 Oeste 26 Oeste 0 -- -- 78
2020-03-16 05:00:00 3 10 Oeste 27 Noroeste 0 -- -- 78
2020-03-16 04:00:00 3.1 13 Oeste 27 Noroeste 0 -- -- 77
2020-03-16 03:00:00 3.4 11 Oeste 28 Oeste -- -- -- 77
2020-03-16 02:00:00 4.1 13 Oeste 31 Noroeste 0 -- -- 77
2020-03-16 01:00:00 5.6 10 Oeste 26 Noroeste 0 -- -- 76
2020-03-16 00:00:00 6.6 9 Oeste 26 Oeste 0 -- -- 81
2020-03-15 23:00:00 7.2 12 Oeste 28 Oeste 0 -- -- 80
2020-03-15 22:00:00 9.4 14 Oeste 32 Oeste 0 -- -- 77
2020-03-15 21:00:00 10.8 9 Sudoeste 28 Oeste 0 -- -- 64
2020-03-15 20:00:00 12.5 14 Oeste 35 Oeste 0 -- -- 59
2020-03-15 19:00:00 14.4 18 Oeste 36 Oeste 0 -- -- 65
2020-03-15 18:00:00 17.3 20 Sudoeste 39 Sudoeste 0 -- -- 63
2020-03-15 17:00:00 17.6 13 Oeste 50 Sudoeste 0 -- -- 63
2020-03-15 16:00:00 20.1 29 Sudoeste 47 Sudoeste 0 -- -- 51
2020-03-15 15:00:00 20.7 25 Sudoeste 41 Sudoeste 0 -- -- 52
2020-03-15 14:00:00 19.4 11 Oeste 31 Sudoeste 0 -- -- 60
2020-03-15 13:00:00 19.7 13 Sudoeste 27 Sudoeste 0 -- -- 59
2020-03-15 12:00:00 19 16 Sudoeste 22 Sudoeste 0 -- -- 66
2020-03-15 11:00:00 15.9 7 Sur 12 Sudeste 0 -- -- 78
2020-03-15 10:00:00 14.8 6 Sudeste 10 Sudeste 0 -- -- 76
2020-03-15 09:00:00 14.3 6 Sudeste 14 Sudeste 0 -- -- 77
2020-03-15 08:00:00 12.8 9 Este 15 Sudeste 0 -- -- 80
2020-03-15 07:00:00 12.9 10 Sudeste 13 Sudeste 0 -- -- 80
2020-03-15 06:00:00 13.1 8 Sudeste 14 Sudeste 0 -- -- 81
2020-03-15 05:00:00 12.9 9 Este 13 Sudeste 0 -- -- 82
2020-03-15 04:00:00 12.6 9 Sudeste 17 Sudeste 0 -- -- 84
2020-03-15 03:00:00 13.6 9 Sudeste 14 Sudeste 0 -- -- 81
2020-03-15 02:00:00 13.9 10 Este 15 Sudeste 0 -- -- 81
2020-03-15 01:00:00 13.8 9 Este 14 Este 0 -- -- 82
2020-03-15 00:00:00 14.3 9 Este 12 Este 0 -- -- 80
2020-03-14 23:00:00 14 6 Este 10 Este 0 -- -- 79
2020-03-14 22:00:00 15.5 3 Sudeste 7 Sudoeste 0 -- -- 73
2020-03-14 21:00:00 16.2 4 Sudoeste 7 Oeste 0 -- -- 69
2020-03-14 20:00:00 17.3 4 Oeste 7 Oeste 0 -- -- 65
2020-03-14 19:00:00 19.3 4 Noroeste 12 Sudoeste 0 -- -- 55
2020-03-14 18:00:00 21.4 7 Oeste 17 Oeste 0 -- -- 51
2020-03-14 17:00:00 22.2 6 Noroeste 17 Noroeste 0 -- -- 48
2020-03-14 16:00:00 22.1 9 Oeste 19 Sudoeste 0 -- -- 55
2020-03-14 15:00:00 21.3 6 Oeste 28 Oeste 0 -- -- 57
2020-03-14 14:00:00 20.6 6 Oeste 16 Noroeste 0 -- -- 62
2020-03-14 13:00:00 19.6 7 Oeste 16 Oeste 0 -- -- 68
2020-03-14 12:00:00 18.1 5 Oeste 12 Oeste 0 -- -- 74
2020-03-14 11:00:00 15.9 3 Oeste 7 Sur 0 -- -- 78
2020-03-14 10:00:00 14.5 4 Sur 10 Norte 0 -- -- 81
2020-03-14 09:00:00 12.6 0 Calma 8 Sudeste 0 -- -- 90
2020-03-14 08:00:00 10.1 6 Este 10 Sudeste 0 -- -- 96
2020-03-14 07:00:00 10.2 6 Sudeste 7 Sudeste 0 -- -- 94
2020-03-14 06:00:00 10.3 4 Noroeste 12 Norte 0 -- -- 94
2020-03-14 05:00:00 10.9 4 Este 13 Sudeste 0 -- -- 90
2020-03-14 04:00:00 11.1 6 Sudeste 16 Sudeste 0 -- -- 93
2020-03-14 03:00:00 11.2 10 Este 15 Este 0 -- -- 95
2020-03-14 02:00:00 11.5 9 Sudeste 12 Sudeste 0 -- -- 95
2020-03-14 01:00:00 11.9 8 Sudeste 12 Sudeste 0 -- -- 93
2020-03-14 00:00:00 12.4 6 Sudeste 9 Sudeste 0 -- -- 91
2020-03-13 23:00:00 13.1 6 Sudeste 9 Sudeste 0 -- -- 87
2020-03-13 22:00:00 14 3 Sur 10 Sudoeste 0 -- -- 82
2020-03-13 21:00:00 14.8 5 Oeste 12 Oeste 0 -- -- 79
2020-03-13 20:00:00 16.3 6 Oeste 13 Oeste 0 -- -- 72
2020-03-13 19:00:00 18.3 6 Oeste 19 Noroeste 0 -- -- 65
2020-03-13 18:00:00 20.1 8 Oeste 20 Sudoeste 0 -- -- 55
2020-03-13 17:00:00 20.6 12 Sudoeste 25 Sudoeste 0 -- -- 59
2020-03-13 16:00:00 21.2 10 Sudoeste 23 Oeste 0 -- -- 56
2020-03-13 15:00:00 20 11 Sudoeste 21 Sudoeste 0 -- -- 62
2020-03-13 14:00:00 18.5 11 Sudoeste 21 Sur 0 -- -- 69
2020-03-13 13:00:00 18.3 12 Sudoeste 24 Sudoeste 0 -- -- 70
2020-03-13 12:00:00 16.7 10 Sudoeste 20 Sudoeste 0 -- -- 76
2020-03-13 11:00:00 15.4 10 Sudoeste 16 Sudoeste 0 -- -- 77
2020-03-13 10:00:00 13.8 7 Sudoeste 14 Sudoeste 0 -- -- 82
2020-03-13 09:00:00 12.7 7 Sur 9 Sur 0 -- -- 82
2020-03-13 08:00:00 11.3 6 Sudeste 13 Sudeste 0 -- -- 85
2020-03-13 07:00:00 11.5 9 Sudeste 15 Sudeste 0 -- -- 84
2020-03-13 06:00:00 11.8 9 Sudeste 14 Sudeste 0 -- -- 83
2020-03-13 05:00:00 12 8 Sudeste 14 Sudeste 0 -- -- 81
2020-03-13 04:00:00 12.5 4 Sudeste 11 Sudeste 0 -- -- 79
2020-03-13 03:00:00 13 9 Sudeste 13 Sudeste 0 -- -- 77
2020-03-13 02:00:00 14.1 8 Sudeste 14 Sudeste 0 -- -- 71
2020-03-13 01:00:00 14.7 10 Sudeste 15 Sudeste 0 -- -- 69
2020-03-13 00:00:00 15.1 5 Sudeste 13 Sur 0 -- -- 65
2020-03-12 23:00:00 15.5 9 Sur 12 Sur 0 -- -- 63
2020-03-12 22:00:00 16.2 5 Sudoeste 12 Sudoeste 0 -- -- 58
2020-03-12 21:00:00 18 7 Sudoeste 11 Sudoeste 0 -- -- 52
2020-03-12 20:00:00 18.9 4 Noroeste 10 Oeste 0 -- -- 47
2020-03-12 19:00:00 20.5 6 Oeste 16 Sudoeste 0 -- -- 48
2020-03-12 18:00:00 22.5 8 Sur 21 Sudoeste 0 -- -- 43
2020-03-12 17:00:00 23.2 12 Sudoeste 26 Sur 0 -- -- 39
2020-03-12 16:00:00 23.3 17 Sur 27 Sudoeste 0 -- -- 39
2020-03-12 15:00:00 23.7 17 Sudoeste 29 Sur 0 -- -- 38
2020-03-12 14:00:00 24 16 Sur 30 Sudoeste 0 -- -- 38
2020-03-12 13:00:00 23.8 9 Sur 17 Sudoeste 0 -- -- 43
2020-03-12 12:00:00 22.8 6 Sudoeste 15 Sudoeste 0 -- -- 47
2020-03-12 11:00:00 21.3 6 Sudeste 15 Sudeste 0 -- -- 47
2020-03-12 10:00:00 20.5 8 Sudeste 14 Este 0 -- -- 44
2020-03-12 09:00:00 18.2 9 Este 15 Este 0 -- -- 47
2020-03-12 08:00:00 17 8 Este 14 Este 0 -- -- 46
2020-03-12 07:00:00 17.1 9 Este 13 Este 0 -- -- 48
2020-03-12 06:00:00 18.4 6 Sudeste 8 Este 0 -- -- 44
2020-03-12 05:00:00 16.7 9 Nordeste 10 Este 0 -- -- 49
2020-03-12 04:00:00 18.4 6 Este 13 Este 0 -- -- 45
2020-03-12 03:00:00 18.3 10 Este 19 Este 0 -- -- 46
2020-03-12 02:00:00 19 13 Este 21 Este 0 -- -- 44
2020-03-12 01:00:00 19.7 14 Este 19 Este 0 -- -- 41
2020-03-12 00:00:00 19.6 12 Este 20 Este 0 -- -- 43
2020-03-11 23:00:00 17.1 14 Nordeste 18 Este 0 -- -- 62
2020-03-11 22:00:00 17.3 15 Nordeste 17 Este 0 -- -- 64
2020-03-11 21:00:00 17.5 14 Este 15 Nordeste 0 -- -- 65
2020-03-11 20:00:00 18.3 14 Nordeste 15 Nordeste 0 -- -- 63
2020-03-11 19:00:00 20 7 Nordeste 10 Nordeste 0 -- -- 62
2020-03-11 18:00:00 21.6 6 Norte 12 Norte 0 -- -- 58
2020-03-11 17:00:00 22.9 6 Norte 12 Norte 0 -- -- 50
2020-03-11 16:00:00 23.6 4 Noroeste 13 Sudoeste 0 -- -- 49
2020-03-11 15:00:00 23.5 5 Oeste 13 Oeste 0 -- -- 46
2020-03-11 14:00:00 23.7 5 Oeste 12 Noroeste 0 -- -- 46
2020-03-11 13:00:00 22.3 6 Noroeste 14 Noroeste 0 -- -- 54
2020-03-11 12:00:00 20.7 6 Noroeste 12 Noroeste 0 -- -- 57
2020-03-11 11:00:00 19.9 4 Sur 8 Sudeste 0 -- -- 53
2020-03-11 10:00:00 18.1 6 Sudeste 10 Este 0 -- -- 56
2020-03-11 09:00:00 16.5 7 Este 12 Este 0 -- -- 56
2020-03-11 08:00:00 14.5 6 Este 12 Este 0 -- -- 61
2020-03-11 07:00:00 14.5 9 Este 13 Este 0 -- -- 60
2020-03-11 06:00:00 14.5 8 Este 12 Este 0 -- -- 61
2020-03-11 05:00:00 13.5 9 Este 12 Este 0 -- -- 65
2020-03-11 04:00:00 14.1 9 Este 12 Este 0 -- -- 63
2020-03-11 03:00:00 14.7 8 Este 13 Este 0 -- -- 61
2020-03-11 02:00:00 14.9 8 Este 14 Este 0 -- -- 61
2020-03-11 01:00:00 14.8 10 Este 14 Sudeste 0 -- -- 62
2020-03-11 00:00:00 14.7 8 Sudeste 12 Este 0 -- -- 63
2020-03-10 23:00:00 15.3 0 Calma 9 Sudeste 0 -- -- 60
2020-03-10 22:00:00 16.6 2 Sudoeste 9 Oeste 0 -- -- 54
2020-03-10 21:00:00 16.9 5 Oeste 8 Sudoeste 0 -- -- 52
2020-03-10 20:00:00 17.4 4 Sudoeste 9 Sudoeste 0 -- -- 53
2020-03-10 19:00:00 19.8 6 Sudoeste 11 Sudoeste 0 -- -- 49
2020-03-10 18:00:00 22 7 Sudoeste 14 Sudoeste 0 -- -- 41
2020-03-10 17:00:00 22.3 6 Sudoeste 13 Sudoeste 0 -- -- 42
2020-03-10 16:00:00 21.7 8 Sudoeste 18 Sudoeste 0 -- -- 42
2020-03-10 15:00:00 21.6 8 Sudoeste 18 Sudoeste 0 -- -- 41
2020-03-10 14:00:00 20.6 8 Sudoeste 18 Sudoeste 0 -- -- 47
2020-03-10 13:00:00 19.2 9 Sudoeste 16 Sudoeste 0 -- -- 51
2020-03-10 12:00:00 18 5 Oeste 11 Oeste 0 -- -- 44
2020-03-10 11:00:00 16.4 5 Sudoeste 9 Sudoeste 0 -- -- 54
2020-03-10 10:00:00 15.8 3 Este 11 Sudeste 0 -- -- 50
2020-03-10 09:00:00 13.5 9 Este 15 Sudeste 0 -- -- 49
2020-03-10 08:00:00 11.3 10 Este 16 Este 0 -- -- 53
2020-03-10 07:00:00 10.6 12 Este 18 Este 0 -- -- 56
2020-03-10 06:00:00 8.7 13 Este 17 Este 0 -- -- 65
2020-03-10 05:00:00 9.3 9 Este 11 Este 0 -- -- 63
2020-03-10 04:00:00 9.1 4 Este 13 Sudeste 0 -- -- 64
2020-03-10 03:00:00 9.7 11 Sudeste 15 Sudeste 0 -- -- 62
2020-03-10 02:00:00 9 9 Nordeste 13 Nordeste 0 -- -- 65
2020-03-10 01:00:00 9.7 8 Este 12 Este 0 -- -- 65
2020-03-10 00:00:00 10.6 4 Sudeste 11 Este 0 -- -- 59
2020-03-09 23:00:00 11.6 8 Este 15 Sudeste 0 -- -- 57
2020-03-09 22:00:00 12.5 3 Noroeste 9 Oeste 0 -- -- 49
2020-03-09 21:00:00 14 6 Noroeste 20 Noroeste 0 -- -- 46
2020-03-09 20:00:00 14.1 9 Noroeste 16 Oeste 0 -- -- 46
2020-03-09 19:00:00 15.9 8 Noroeste 28 Noroeste 0 -- -- 44
2020-03-09 18:00:00 17.9 13 Noroeste 26 Noroeste 0 -- -- 32
2020-03-09 17:00:00 18.5 6 Oeste 25 Noroeste 0 -- -- 38
2020-03-09 16:00:00 18.2 10 Noroeste 22 Noroeste 0 -- -- 44
2020-03-09 15:00:00 17.1 9 Noroeste 22 Noroeste 0 -- -- 46
2020-03-09 14:00:00 16 9 Noroeste 22 Noroeste 0 -- -- 48
2020-03-09 13:00:00 14.4 10 Noroeste 22 Noroeste 0 -- -- 52
2020-03-09 12:00:00 13.1 6 Oeste 13 Noroeste 0 -- -- 57
2020-03-09 11:00:00 10.3 4 Sur 9 Sur 0 -- -- 76
2020-03-09 10:00:00 8 7 Sudeste 12 Sudeste 0 -- -- 85
2020-03-09 09:00:00 6.3 6 Sudeste 11 Este 0 -- -- 89
2020-03-09 08:00:00 5.3 6 Este 14 Sur 0 -- -- 90
2020-03-09 07:00:00 5.5 10 Sudeste 18 Sudeste 0 -- -- 92
2020-03-09 06:00:00 5.8 4 Este 17 Noroeste 0 -- -- 88
2020-03-09 05:00:00 6.7 3 Sudoeste 15 Sudoeste 0 -- -- 88
2020-03-09 04:00:00 7.4 5 Oeste 14 Oeste 0 -- -- 89
2020-03-09 03:00:00 7.6 5 Oeste 18 Noroeste 0 -- -- 90
2020-03-09 02:00:00 7.8 5 Oeste 10 Oeste 0 -- -- 90
2020-03-09 01:00:00 8.8 5 Oeste 17 Noroeste 0 -- -- 89
2020-03-09 00:00:00 8.7 4 Sudoeste 9 Oeste 0 -- -- 89
2020-03-08 23:00:00 9.4 5 Oeste 11 Sudoeste 0 -- -- 86
2020-03-08 22:00:00 9.9 5 Oeste 12 Oeste 0 -- -- 84
2020-03-08 21:00:00 9.9 5 Oeste 12 Oeste 0 -- -- 81
2020-03-08 20:00:00 11.1 6 Oeste 11 Oeste 0 -- -- 74
2020-03-08 19:00:00 12.6 4 Sudoeste 15 Sudoeste 0 -- -- 66
2020-03-08 18:00:00 13.5 7 Sudoeste 17 Oeste 0 -- -- 62
2020-03-08 17:00:00 13.9 6 Oeste 21 Oeste 0 -- -- 61
2020-03-08 16:00:00 15.3 9 Oeste 19 Noroeste 0 -- -- 57
2020-03-08 15:00:00 15.2 8 Oeste 19 Sudoeste 0 -- -- 53
2020-03-08 14:00:00 15.3 11 Sudoeste 22 Sudoeste 0 -- -- 56
2020-03-08 13:00:00 14.6 10 Sudoeste 21 Sudoeste 0 -- -- 55
2020-03-08 12:00:00 13.1 9 Sudoeste 15 Sudoeste 0 -- -- 63
2020-03-08 11:00:00 11.2 5 Sur 11 Sur 0 -- -- 73
2020-03-08 10:00:00 9.5 5 Sur 9 Sudeste 0 -- -- 74
2020-03-08 09:00:00 8.4 7 Sudeste 17 Sudeste 0 -- -- 75
2020-03-08 08:00:00 6.5 10 Sudeste 15 Sudeste 0 -- -- 80
2020-03-08 07:00:00 6.6 5 Sudeste 11 Sudeste 0 -- -- 79
2020-03-08 06:00:00 7 9 Sudeste 13 Sudeste 0 -- -- 77
2020-03-08 05:00:00 7.1 9 Sudeste 15 Sudeste 0 -- -- 76
2020-03-08 04:00:00 7.4 5 Sudeste 8 Sudeste 0 -- -- 74
2020-03-08 03:00:00 8 5 Sudeste 12 Sudeste 0 -- -- 72
2020-03-08 02:00:00 8.1 10 Este 16 Sudeste 0 -- -- 72
2020-03-08 01:00:00 8.6 8 Este 12 Sudeste 0 -- -- 71
2020-03-08 00:00:00 8.7 8 Sudeste 12 Sudeste 0 -- -- 71
2020-03-07 23:00:00 9.1 7 Sudeste 10 Sudeste 0 -- -- 70
2020-03-07 22:00:00 9.3 3 Sur 9 Sudoeste 0 -- -- 70
2020-03-07 21:00:00 10.2 3 Sudoeste 10 Sudoeste 0 -- -- 65
2020-03-07 20:00:00 11.2 5 Sudoeste 11 Sudoeste 0 -- -- 60
2020-03-07 19:00:00 13.3 5 Sudoeste 13 Sur 0 -- -- 53
2020-03-07 18:00:00 15.4 8 Sudoeste 15 Sudoeste 0 -- -- 43
2020-03-07 17:00:00 16.2 8 Sudoeste 16 Oeste 0 -- -- 43
2020-03-07 16:00:00 16.2 7 Sudoeste 16 Oeste 0 -- -- 45
2020-03-07 15:00:00 15.3 7 Oeste 17 Sudoeste 0 -- -- 45
2020-03-07 14:00:00 14.5 7 Sudoeste 17 Sudoeste 0 -- -- 49
2020-03-07 13:00:00 13.7 7 Oeste 15 Sudoeste 0 -- -- 49
2020-03-07 12:00:00 12.3 5 Sudoeste 12 Sudoeste 0 -- -- 54
2020-03-07 11:00:00 9.5 4 Sudoeste 11 Sur 0 -- -- 62
2020-03-07 10:00:00 8.4 4 Noroeste 7 Noroeste 0 -- -- 69
2020-03-07 09:00:00 5 5 Sudeste 8 Sudeste 0 -- -- 74
2020-03-07 08:00:00 3.9 3 Nordeste 10 Este 0 -- -- 76
2020-03-07 07:00:00 4.2 8 Sudeste 12 Nordeste 0 -- -- 74
2020-03-07 06:00:00 4.1 8 Este 13 Este 0 -- -- 75
2020-03-07 05:00:00 4.4 3 Sudeste 20 Noroeste 0 -- -- 73
2020-03-07 04:00:00 5.6 9 Noroeste 17 Noroeste 0 -- -- 67
2020-03-07 03:00:00 5.7 11 Noroeste 23 Norte 0 -- -- 64
2020-03-07 02:00:00 6.7 16 Noroeste 30 Noroeste 0 -- -- 59
2020-03-07 01:00:00 7.5 24 Noroeste 46 Noroeste 0 -- -- 57
2020-03-07 00:00:00 8 28 Noroeste 41 Norte 0 -- -- 57
2020-03-06 23:00:00 8.4 23 Noroeste 41 Noroeste 0 -- -- 56
2020-03-06 22:00:00 8.9 21 Noroeste 40 Noroeste 0 -- -- 52
2020-03-06 21:00:00 8.9 18 Noroeste 32 Noroeste 0 -- -- 52
2020-03-06 20:00:00 9.9 14 Noroeste 37 Noroeste 0 -- -- 49
2020-03-06 19:00:00 11.2 22 Noroeste 38 Noroeste 0 -- -- 46
2020-03-06 18:00:00 12.6 24 Noroeste 42 Noroeste 0 -- -- 44
2020-03-06 17:00:00 13.7 18 Noroeste 37 Oeste 0 -- -- 44
2020-03-06 16:00:00 13.4 19 Noroeste 44 Noroeste 0 -- -- 44
2020-03-06 15:00:00 12.9 24 Noroeste 49 Noroeste 0 -- -- 47
2020-03-06 14:00:00 12.5 22 Noroeste 48 Noroeste 0 -- -- 52
2020-03-06 13:00:00 11.5 26 Noroeste 51 Noroeste 0 -- -- 54
2020-03-06 12:00:00 11.3 19 Noroeste 41 Noroeste 0 -- -- 58
2020-03-06 11:00:00 10.3 17 Noroeste 36 Oeste 0 -- -- 60
2020-03-06 10:00:00 8.2 17 Oeste 35 Oeste 0 -- -- 70
2020-03-06 09:00:00 6.8 11 Oeste 26 Oeste 0 -- -- 95
2020-03-06 08:00:00 6.7 9 Oeste 21 Oeste 0 -- -- 99
2020-03-06 07:00:00 6.4 5 Oeste 16 Sudoeste 0 -- -- 99
2020-03-06 06:00:00 6 9 Sudoeste 20 Sudoeste 0.2 -- -- 98
2020-03-06 05:00:00 5.4 10 Sudoeste 20 Sur 0 -- -- 97
2020-03-06 04:00:00 5.3 8 Sudoeste 15 Sudoeste 0 -- -- 95
2020-03-06 03:00:00 5.1 6 Sudoeste 13 Sudoeste 0 -- -- 95
2020-03-06 02:00:00 5.3 5 Oeste 12 Sudoeste 0 -- -- 91
2020-03-06 01:00:00 5.9 6 Oeste 17 Oeste 0 -- -- 89
2020-03-06 00:00:00 6.8 8 Oeste 24 Oeste 0 -- -- 83
2020-03-05 23:00:00 7.6 11 Noroeste 22 Oeste 0 -- -- 80
2020-03-05 22:00:00 8.2 9 Oeste 26 Oeste 0 -- -- 80
2020-03-05 21:00:00 9.3 13 Oeste 28 Oeste 0 -- -- 74
2020-03-05 20:00:00 10.7 14 Oeste 28 Oeste 0 -- -- 73
2020-03-05 19:00:00 11.9 13 Oeste 39 Oeste 0 -- -- 70
2020-03-05 18:00:00 13.6 16 Oeste 37 Oeste 0 -- -- 64
2020-03-05 17:00:00 14.6 18 Oeste 40 Oeste 0 -- -- 58
2020-03-05 16:00:00 15.2 15 Oeste 40 Sudoeste 0 -- -- 58
2020-03-05 15:00:00 15.2 19 Oeste 40 Oeste 0 -- -- 60
2020-03-05 14:00:00 13.7 16 Oeste 40 Oeste 0 -- -- 66
2020-03-05 13:00:00 13.3 16 Oeste 37 Oeste 0 -- -- 73
2020-03-05 12:00:00 11.5 15 Oeste 32 Oeste 0 -- -- 84
2020-03-05 11:00:00 10.5 12 Oeste 47 Sudoeste 0.6 -- -- 100
2020-03-05 10:00:00 10.2 28 Sudoeste 43 Sudoeste 1 -- -- 100
2020-03-05 09:00:00 10.1 27 Sudoeste 45 Sudoeste 0.4 -- -- 99
2020-03-05 08:00:00 10.3 24 Sudoeste 36 Sudoeste 0 -- -- 97
2020-03-05 07:00:00 10 19 Sudoeste 33 Sudoeste 0 -- -- 99
2020-03-05 06:00:00 10.3 15 Sudoeste 24 Sudoeste 0 -- -- 99
2020-03-05 05:00:00 10.5 16 Sudoeste 22 Sudoeste 0 -- -- 99
2020-03-05 04:00:00 10.9 14 Sudoeste 23 Sudoeste 0 -- -- 98
2020-03-05 03:00:00 11.3 14 Sudoeste 23 Sudoeste 0 -- -- 97
2020-03-05 02:00:00 11.3 8 Sudoeste 14 Sudoeste 0 -- -- 96
2020-03-05 01:00:00 11.4 9 Sudoeste 16 Sudoeste 0 -- -- 93
2020-03-05 00:00:00 11.4 7 Sur 13 Sudoeste 0 -- -- 92
2020-03-04 23:00:00 11.1 8 Sudoeste 15 Sudoeste 0 -- -- 93
2020-03-04 22:00:00 11.2 7 Sudoeste 14 Sudoeste 0 -- -- 91
2020-03-04 21:00:00 11 8 Sudoeste 16 Oeste 0 -- -- 88
2020-03-04 20:00:00 12.2 7 Oeste 15 Noroeste 0 -- -- 82
2020-03-04 19:00:00 13.9 5 Oeste 23 Oeste 0 -- -- 71
2020-03-04 18:00:00 15 8 Oeste 22 Oeste 0 -- -- 70
2020-03-04 17:00:00 16.5 8 Oeste 29 Oeste 0 -- -- 68
2020-03-04 16:00:00 16 12 Oeste 30 Sudoeste 0 -- -- 70
2020-03-04 15:00:00 16.2 12 Oeste 27 Oeste 0 -- -- 69
2020-03-04 14:00:00 16 15 Oeste 27 Oeste 0 -- -- 72
2020-03-04 13:00:00 15.4 14 Oeste 27 Sudoeste 0 -- -- 73
2020-03-04 12:00:00 15.2 12 Oeste 25 Sudoeste 0 -- -- 78
2020-03-04 11:00:00 12.8 10 Oeste 22 Sudoeste 0 -- -- 88
2020-03-04 10:00:00 11.3 8 Sudoeste 21 Oeste 0 -- -- 98
2020-03-04 09:00:00 10.4 7 Oeste 18 Sudoeste 0 -- -- 99
2020-03-04 08:00:00 10.2 8 Oeste 19 Sudoeste 0 -- -- 99
2020-03-04 07:00:00 10.4 13 Sudoeste 22 Sudoeste 0 -- -- 99
2020-03-04 06:00:00 10.5 9 Sudoeste 22 Oeste 0 -- -- 98
2020-03-04 05:00:00 10.7 12 Sudoeste 24 Sudoeste 0 -- -- 98
2020-03-04 04:00:00 11 10 Oeste 23 Sudoeste 0 -- -- 99
2020-03-04 03:00:00 11.2 10 Sudoeste 24 Sudoeste 0 -- -- 99
2020-03-04 02:00:00 11.3 11 Sudoeste 22 Sudoeste 0 -- -- 98
2020-03-04 01:00:00 11.3 10 Sudoeste 23 Sudoeste 0 -- -- 98
2020-03-04 00:00:00 11.1 10 Sudoeste 22 Sudoeste 0 -- -- 98
2020-03-03 23:00:00 11.2 13 Sudoeste 26 Sudoeste 0 -- -- 97
2020-03-03 22:00:00 11.4 7 Sudoeste 19 Sudoeste 0 -- -- 96
2020-03-03 21:00:00 12.1 9 Sudoeste 23 Sudoeste 0 -- -- 94
2020-03-03 20:00:00 12.8 9 Sudoeste 37 Sudoeste 0 -- -- 91
2020-03-03 19:00:00 13.8 20 Sudoeste 37 Oeste 0 -- -- 87
2020-03-03 18:00:00 13.8 16 Sudoeste 31 Sudoeste 0 -- -- 86
2020-03-03 17:00:00 13.8 14 Sudoeste 28 Sudoeste 0 -- -- 86
2020-03-03 16:00:00 13.5 13 Sudoeste 28 Sudoeste 0 -- -- 85
2020-03-03 15:00:00 11.9 18 Sudoeste 32 Sudoeste 0 -- -- 93
2020-03-03 14:00:00 11.3 11 Sudoeste 35 Sudoeste 0 -- -- 94
2020-03-03 13:00:00 10.3 22 Sudoeste 34 Sudoeste 0 -- -- 94
2020-03-03 12:00:00 9.9 23 Sudoeste 38 Sudoeste 0 -- -- 92
2020-03-03 11:00:00 8.4 16 Sudoeste 28 Sudoeste 0 -- -- 94
2020-03-03 10:00:00 7.9 20 Sudoeste 36 Sudoeste 0 -- -- 94
2020-03-03 09:00:00 7 12 Sudoeste 22 Sudoeste 0 -- -- 96
2020-03-03 08:00:00 6.5 11 Sudoeste 19 Sur 0 -- -- 96
2020-03-03 07:00:00 6 10 Sur 15 Sur 0 -- -- 98
2020-03-03 06:00:00 5.3 9 Sudoeste 15 Sudoeste 0 -- -- 98
2020-03-03 05:00:00 5 9 Sudoeste 17 Sudoeste 0 -- -- 97
2020-03-03 04:00:00 4.3 7 Sur 12 Sur 0 -- -- 96
2020-03-03 03:00:00 4.3 4 Sur 9 Sudoeste 0 -- -- 91
2020-03-03 02:00:00 4.8 6 Sudoeste 10 Sudoeste 0 -- -- 88
2020-03-03 01:00:00 5 3 Sudoeste 12 Sudoeste 0 -- -- 84
2020-03-03 00:00:00 6 5 Oeste 25 Noroeste 0 -- -- 79